createdAt,value
2023-04-25T00:01:30.572Z,6.38
2023-04-25T00:03:57.345Z,5.75
2023-04-25T00:06:24.220Z,5.80
2023-04-25T00:08:50.745Z,6.03
2023-04-25T00:11:18.458Z,6.53
2023-04-25T00:13:44.861Z,5.53
2023-04-25T00:16:11.320Z,6.35
2023-04-25T00:18:37.756Z,7.00
2023-04-25T00:21:04.215Z,8.23
2023-04-25T00:23:30.631Z,5.78
2023-04-25T00:25:57.059Z,5.15
2023-04-25T00:28:24.847Z,6.78
2023-04-25T00:30:51.313Z,6.88
2023-04-25T00:33:17.817Z,7.72
2023-04-25T00:35:44.321Z,7.53
2023-04-25T00:38:10.781Z,7.00
2023-04-25T00:40:37.222Z,7.35
2023-04-25T00:43:03.691Z,7.13
2023-04-25T00:45:31.583Z,8.13
2023-04-25T00:47:58.209Z,8.02
2023-04-25T00:50:25.046Z,8.13
2023-04-25T00:52:51.956Z,6.55
2023-04-25T00:55:18.766Z,5.65
2023-04-25T00:57:45.815Z,6.22
2023-04-25T01:00:12.810Z,7.28
2023-04-25T01:02:40.956Z,5.85
2023-04-25T01:05:07.957Z,9.30
2023-04-25T01:07:35.803Z,7.57
2023-04-25T01:10:02.585Z,5.97
2023-04-25T01:12:29.453Z,7.90
2023-04-25T01:14:56.104Z,8.02
2023-04-25T01:17:22.578Z,5.50
2023-04-25T01:19:51.087Z,7.53
2023-04-25T01:22:18.947Z,6.40
2023-04-25T01:24:46.640Z,7.75
2023-04-25T01:27:13.459Z,6.25
2023-04-25T01:29:40.356Z,7.88
2023-04-25T01:32:07.852Z,7.38
2023-04-25T01:34:34.329Z,8.07
2023-04-25T01:37:01.390Z,5.78
2023-04-25T01:39:30.248Z,7.47
2023-04-25T01:41:57.553Z,6.28
2023-04-25T01:44:24.261Z,5.85
2023-04-25T01:46:50.694Z,7.03
2023-04-25T01:49:17.229Z,5.65
2023-04-25T01:51:44.908Z,6.22
2023-04-25T01:54:11.593Z,6.72
2023-04-25T01:56:40.452Z,7.78
2023-04-25T01:59:09.309Z,7.50
2023-04-25T02:01:35.810Z,7.43
2023-04-25T02:04:16.871Z,7.25
2023-04-25T02:06:44.152Z,5.90
2023-04-25T02:09:11.164Z,7.05
2023-04-25T02:11:43.653Z,8.13
2023-04-25T02:14:28.872Z,5.38
2023-04-25T02:17:05.985Z,6.45
2023-04-25T02:19:32.624Z,5.45
2023-04-25T02:21:59.140Z,5.63
2023-04-25T02:24:25.736Z,6.07
2023-04-25T02:26:53.630Z,6.88
2023-04-25T02:29:20.072Z,7.50
2023-04-25T02:31:46.573Z,5.82
2023-04-25T02:34:13.075Z,6.85
2023-04-25T02:36:39.478Z,5.43
2023-04-25T02:39:05.919Z,7.32
2023-04-25T02:41:32.362Z,6.35
2023-04-25T02:44:00.129Z,7.40
2023-04-25T02:46:38.283Z,6.30
2023-04-25T02:49:06.167Z,5.68
2023-04-25T02:51:32.678Z,8.13
2023-04-25T02:53:59.418Z,7.80
2023-04-25T02:56:25.982Z,6.18
2023-04-25T02:58:53.550Z,5.93
2023-04-25T03:03:55.594Z,6.45
2023-04-25T03:06:22.527Z,6.70
2023-04-25T03:08:48.885Z,8.38
2023-04-25T03:11:15.329Z,8.90
2023-04-25T03:13:42.487Z,8.32
2023-04-25T03:16:10.383Z,7.65
2023-04-25T03:18:36.806Z,7.05
2023-04-25T03:21:04.968Z,6.20
2023-04-25T03:23:31.586Z,5.63
2023-04-25T03:25:58.049Z,8.27
2023-04-25T03:28:24.543Z,7.63
2023-04-25T03:30:51.102Z,6.13
2023-04-25T03:33:17.481Z,5.93
2023-04-25T03:35:43.982Z,7.28
2023-04-25T03:38:12.403Z,8.13
2023-04-25T03:40:40.305Z,5.53
2023-04-25T03:43:18.014Z,8.10
2023-04-25T03:45:50.832Z,6.90
2023-04-25T03:48:20.386Z,8.43
2023-04-25T03:50:47.439Z,8.52
2023-04-25T03:53:15.195Z,6.07
2023-04-25T03:56:01.588Z,8.05
2023-04-25T03:58:32.074Z,7.25
2023-04-25T04:00:58.553Z,8.32
2023-04-25T04:03:25.368Z,8.07
2023-04-25T04:05:52.115Z,9.07
2023-04-25T04:08:22.277Z,7.63
2023-04-25T04:10:48.694Z,9.95
2023-04-25T04:13:15.441Z,8.52
2023-04-25T04:15:41.922Z,9.38
2023-04-25T04:18:08.468Z,8.98
2023-04-25T04:20:35.128Z,8.63
2023-04-25T04:23:01.598Z,7.75
2023-04-25T04:25:29.633Z,10.35
2023-04-25T04:28:10.397Z,9.70
2023-04-25T04:30:50.410Z,9.15
2023-04-25T04:33:17.670Z,7.80
2023-04-25T04:35:46.905Z,8.10
2023-04-25T04:38:14.534Z,8.43
2023-04-25T04:40:42.715Z,7.28
2023-04-25T04:43:17.019Z,10.40
2023-04-25T04:46:01.986Z,9.85
2023-04-25T04:48:32.140Z,8.60
2023-04-25T04:51:26.022Z,7.78
2023-04-25T04:53:55.024Z,10.45
2023-04-25T04:56:32.686Z,7.13
2023-04-25T04:59:28.344Z,7.13
2023-04-25T05:02:05.777Z,8.57
2023-04-25T05:04:56.682Z,10.13
2023-04-25T05:07:41.460Z,9.55
2023-04-25T05:10:26.436Z,9.90
2023-04-25T05:12:56.808Z,7.82
2023-04-25T05:15:43.792Z,10.35
2023-04-25T05:18:30.934Z,7.75
2023-04-25T05:21:05.644Z,9.38
2023-04-25T05:23:41.019Z,8.10
2023-04-25T05:26:23.130Z,8.65
2023-04-25T05:28:59.424Z,8.27
2023-04-25T05:31:39.134Z,8.65
2023-04-25T05:34:10.176Z,6.38
2023-04-25T05:36:45.511Z,5.95
2023-04-25T05:39:11.986Z,7.05
2023-04-25T05:42:04.704Z,6.65
2023-04-25T05:44:55.295Z,7.03
2023-04-25T05:47:34.178Z,8.07
2023-04-25T05:50:20.310Z,8.18
2023-04-25T05:52:56.063Z,7.13
2023-04-25T05:55:30.440Z,7.07
2023-04-25T05:58:00.148Z,7.30
2023-04-25T06:00:28.309Z,7.88
2023-04-25T06:02:55.193Z,8.43
2023-04-25T06:05:21.909Z,6.93
2023-04-25T06:07:49.052Z,8.07
2023-04-25T06:10:15.471Z,7.57
2023-04-25T06:12:42.776Z,6.38
2023-04-25T06:15:24.359Z,8.63
2023-04-25T06:17:55.143Z,7.40
2023-04-25T06:20:22.569Z,7.72
2023-04-25T06:22:49.395Z,6.70
2023-04-25T06:25:16.035Z,7.00
2023-04-25T06:27:42.593Z,6.78
2023-04-25T06:30:09.917Z,6.47
2023-04-25T06:32:36.385Z,9.13
2023-04-25T06:35:04.756Z,5.95
2023-04-25T06:37:31.196Z,5.78
2023-04-25T06:39:57.694Z,6.85
2023-04-25T06:42:24.084Z,7.70
2023-04-25T06:44:56.375Z,5.57
2023-04-25T06:47:22.825Z,7.53
2023-04-25T06:49:50.320Z,7.38
2023-04-25T06:52:18.136Z,7.43
2023-04-25T06:54:45.622Z,7.93
2023-04-25T06:57:34.927Z,7.38
2023-04-25T07:00:19.742Z,6.70
2023-04-25T07:02:46.462Z,5.47
2023-04-25T07:05:13.077Z,6.85
2023-04-25T07:07:40.936Z,6.30
2023-04-25T07:10:07.576Z,7.30
2023-04-25T07:12:33.961Z,5.93
2023-04-25T07:15:00.423Z,7.82
2023-04-25T07:17:27.060Z,6.25
2023-04-25T07:19:53.530Z,6.43
2023-04-25T07:22:19.950Z,6.18
2023-04-25T07:24:47.671Z,7.43
2023-04-25T07:27:14.276Z,6.50
2023-04-25T07:29:49.921Z,7.90
2023-04-25T07:32:16.635Z,6.95
2023-04-25T07:34:43.359Z,7.10
2023-04-25T07:37:10.129Z,7.70
2023-04-25T07:39:48.304Z,9.10
2023-04-25T07:42:14.866Z,8.35
2023-04-25T07:44:43.647Z,8.63
2023-04-25T07:47:12.388Z,8.30
2023-04-25T07:49:39.080Z,7.50
2023-04-25T07:52:06.470Z,7.15
2023-04-25T07:54:35.816Z,8.90
2023-04-25T07:57:11.781Z,6.65
2023-04-25T07:59:38.303Z,6.80
2023-04-25T08:02:06.394Z,7.05
2023-04-25T08:04:33.308Z,6.22
2023-04-25T08:07:03.384Z,6.07
2023-04-25T08:09:35.883Z,6.45
2023-04-25T08:12:11.494Z,4.25
2023-04-25T08:14:39.478Z,5.10
2023-04-25T08:17:06.171Z,5.38
2023-04-25T08:19:34.719Z,3.90
2023-04-25T08:22:02.329Z,4.32
2023-04-25T08:24:39.331Z,4.30
2023-04-25T08:27:06.966Z,4.13
2023-04-25T08:29:33.387Z,5.10
2023-04-25T08:32:01.453Z,5.03
2023-04-25T08:34:28.792Z,4.50
2023-04-25T08:36:55.958Z,3.45
2023-04-25T08:39:40.599Z,3.88
2023-04-25T08:42:28.237Z,4.40
2023-04-25T08:44:54.861Z,2.88
2023-04-25T08:47:24.136Z,4.32
2023-04-25T08:49:57.101Z,3.65
2023-04-25T08:52:24.357Z,4.63
2023-04-25T08:54:52.302Z,4.43
2023-04-25T08:57:20.458Z,4.65
2023-04-25T08:59:48.786Z,4.18
2023-04-25T09:02:16.194Z,3.40
2023-04-25T09:04:45.682Z,3.35
2023-04-25T09:07:12.748Z,5.43
2023-04-25T09:09:39.324Z,5.10
2023-04-25T09:12:06.541Z,4.47
2023-04-25T09:14:33.103Z,3.90
2023-04-25T09:17:04.557Z,5.10
2023-04-25T09:19:40.852Z,3.70
2023-04-25T09:22:18.688Z,3.20
2023-04-25T09:24:46.077Z,4.28
2023-04-25T09:27:18.619Z,4.72
2023-04-25T09:29:45.269Z,4.32
2023-04-25T09:32:24.464Z,4.60
2023-04-25T09:34:54.873Z,3.05
2023-04-25T09:37:24.769Z,5.90
2023-04-25T09:40:13.078Z,3.55
2023-04-25T09:42:51.422Z,4.15
2023-04-25T09:45:18.411Z,4.68
2023-04-25T09:47:45.168Z,4.32
2023-04-25T09:50:17.387Z,5.30
2023-04-25T09:53:03.585Z,4.72
2023-04-25T09:55:32.705Z,4.75
2023-04-25T09:58:06.218Z,5.18
2023-04-25T10:00:33.393Z,5.53
2023-04-25T10:03:12.849Z,5.13
2023-04-25T10:05:53.365Z,6.05
2023-04-25T10:08:22.411Z,6.25
2023-04-25T10:10:50.088Z,5.53
2023-04-25T10:13:16.779Z,6.20
2023-04-25T10:15:43.750Z,6.70
2023-04-25T10:18:10.666Z,7.50
2023-04-25T10:20:37.957Z,7.70
2023-04-25T10:23:12.039Z,7.00
2023-04-25T10:25:40.527Z,7.53
2023-04-25T10:28:07.064Z,6.22
2023-04-25T10:30:33.566Z,7.35
2023-04-25T10:33:00.660Z,6.65
2023-04-25T10:35:29.161Z,6.25
2023-04-25T10:37:59.906Z,7.78
2023-04-25T10:40:26.810Z,7.30
2023-04-25T10:42:54.608Z,6.55
2023-04-25T10:45:21.182Z,5.45
2023-04-25T10:47:47.650Z,5.43
2023-04-25T10:52:55.472Z,7.82
2023-04-25T10:55:22.282Z,6.65
2023-04-25T10:57:49.413Z,6.82
2023-04-25T11:00:19.467Z,5.80
2023-04-25T11:02:47.737Z,7.25
2023-04-25T11:05:21.687Z,7.78
2023-04-25T11:08:00.093Z,6.18
2023-04-25T11:10:34.317Z,7.03
2023-04-25T11:13:00.886Z,7.20
2023-04-25T11:15:29.297Z,7.25
2023-04-25T11:17:56.243Z,7.53
2023-04-25T11:20:25.940Z,7.43
2023-04-25T11:22:52.995Z,6.38
2023-04-25T11:25:20.743Z,5.45
2023-04-25T11:27:51.245Z,5.15
2023-04-25T11:30:18.187Z,5.50
2023-04-25T11:32:46.213Z,5.47
2023-04-25T11:35:13.595Z,4.97
2023-04-25T11:37:40.196Z,6.57
2023-04-25T11:40:09.703Z,5.35
2023-04-25T11:42:37.654Z,5.18
2023-04-25T11:45:05.039Z,5.43
2023-04-25T11:47:32.430Z,3.85
2023-04-25T11:50:00.930Z,4.38
2023-04-25T11:52:36.915Z,4.80
2023-04-25T11:55:05.843Z,3.20
2023-04-25T11:57:32.370Z,4.57
2023-04-25T12:00:06.758Z,4.68
2023-04-25T12:02:40.831Z,4.65
2023-04-25T12:05:29.436Z,5.22
2023-04-25T12:07:56.169Z,2.60
2023-04-25T12:10:25.304Z,3.78
2023-04-25T12:12:51.797Z,4.93
2023-04-25T12:15:23.676Z,4.65
2023-04-25T12:17:51.889Z,4.13
2023-04-25T12:20:21.165Z,2.33
2023-04-25T12:22:48.912Z,5.70
2023-04-25T12:25:35.118Z,4.18
2023-04-25T12:28:10.656Z,3.88
2023-04-25T12:30:53.152Z,3.47
2023-04-25T12:33:19.574Z,4.70
2023-04-25T12:35:47.335Z,4.15
2023-04-25T12:38:21.808Z,3.88
2023-04-25T12:40:48.207Z,3.72
2023-04-25T12:43:14.572Z,4.05
2023-04-25T12:45:41.026Z,2.92
2023-04-25T12:48:07.573Z,4.63
2023-04-25T12:50:34.078Z,4.13
2023-04-25T12:53:01.867Z,4.22
2023-04-25T12:55:28.457Z,4.00
2023-04-25T12:57:54.871Z,5.63
2023-04-25T13:00:21.716Z,4.22
2023-04-25T13:02:48.216Z,3.17
2023-04-25T13:05:14.888Z,3.85
2023-04-25T13:07:41.392Z,3.20
2023-04-25T13:10:09.554Z,3.28
2023-04-25T13:12:35.968Z,4.38
2023-04-25T13:15:02.446Z,3.08
2023-04-25T13:17:29.025Z,4.07
2023-04-25T13:19:55.521Z,3.00
2023-04-25T13:22:22.015Z,3.40
2023-04-25T13:24:48.419Z,3.80
2023-04-25T13:27:16.229Z,4.78
2023-04-25T13:29:42.675Z,3.13
2023-04-25T13:32:10.452Z,3.10
2023-04-25T13:34:36.923Z,3.00
2023-04-25T13:37:03.360Z,3.58
2023-04-25T13:39:29.792Z,2.13
2023-04-25T13:41:56.240Z,2.88
2023-04-25T13:44:23.953Z,3.42
2023-04-25T13:46:50.502Z,3.40
2023-04-25T13:49:17.016Z,3.17
2023-04-25T13:51:43.763Z,4.10
2023-04-25T13:54:10.408Z,3.53
2023-04-25T13:56:36.898Z,3.55
2023-04-25T13:59:03.417Z,3.15
2023-04-25T14:01:31.249Z,3.10
2023-04-25T14:03:58.097Z,2.90
2023-04-25T14:06:24.697Z,2.67
2023-04-25T14:08:51.233Z,2.78
2023-04-25T14:11:17.701Z,3.25
2023-04-25T14:13:44.217Z,3.70
2023-04-25T14:16:10.749Z,3.25
2023-04-25T14:18:38.600Z,3.63
2023-04-25T14:21:05.993Z,2.80
2023-04-25T14:23:32.416Z,3.03
2023-04-25T14:25:58.886Z,3.20
2023-04-25T14:28:25.346Z,3.28
2023-04-25T14:30:51.916Z,3.35
2023-04-25T14:33:21.440Z,3.17
2023-04-25T14:35:52.172Z,3.47
2023-04-25T14:38:18.674Z,3.38
2023-04-25T14:40:45.042Z,2.47
2023-04-25T14:43:11.495Z,4.15
2023-04-25T14:45:41.083Z,3.88
2023-04-25T14:48:07.642Z,3.17
2023-04-25T14:50:34.452Z,4.05
2023-04-25T14:53:02.280Z,3.85
2023-04-25T14:55:29.043Z,4.20
2023-04-25T14:57:57.333Z,3.20
2023-04-25T15:00:25.885Z,3.90
2023-04-25T15:02:52.439Z,3.20
2023-04-25T15:05:21.119Z,3.45
2023-04-25T15:07:47.543Z,4.05
2023-04-25T15:10:15.380Z,2.30
2023-04-25T15:12:41.816Z,3.45
2023-04-25T15:15:09.351Z,2.78
2023-04-25T15:17:35.798Z,3.42
2023-04-25T15:20:02.208Z,2.97
2023-04-25T15:22:28.853Z,3.20
2023-04-25T15:24:55.381Z,3.33
2023-04-25T15:27:23.288Z,2.75
2023-04-25T15:29:50.363Z,3.75
2023-04-25T15:32:19.147Z,1.92
2023-04-25T15:34:45.746Z,2.50
2023-04-25T15:37:12.166Z,3.83
2023-04-25T15:39:38.636Z,2.95
2023-04-25T15:42:05.172Z,2.47
2023-04-25T15:44:33.073Z,3.47
2023-04-25T15:47:02.518Z,3.67
2023-04-25T15:49:29.068Z,3.50
2023-04-25T15:51:55.566Z,3.88
2023-04-25T15:54:22.007Z,2.50
2023-04-25T15:56:48.691Z,3.92
2023-04-25T15:59:15.094Z,3.95
2023-04-25T16:01:43.048Z,3.28
2023-04-25T16:04:09.952Z,3.10
2023-04-25T16:06:36.950Z,2.75
2023-04-25T16:09:03.418Z,4.22
2023-04-25T16:11:30.200Z,2.95
2023-04-25T16:13:56.747Z,3.67
2023-04-25T16:16:23.170Z,3.58
2023-04-25T16:18:51.001Z,3.10
2023-04-25T16:21:17.596Z,3.40
2023-04-25T16:23:44.058Z,3.55
2023-04-25T16:26:10.514Z,3.28
2023-04-25T16:28:36.927Z,3.33
2023-04-25T16:31:03.482Z,2.78
2023-04-25T16:33:30.672Z,3.72
2023-04-25T16:35:59.019Z,3.15
2023-04-25T16:38:25.469Z,3.22
2023-04-25T16:40:51.918Z,2.30
2023-04-25T16:43:18.329Z,3.25
2023-04-25T16:45:44.785Z,3.85
2023-04-25T16:48:11.274Z,3.63
2023-04-25T16:50:37.887Z,3.72
2023-04-25T16:53:05.604Z,3.35
2023-04-25T16:55:32.153Z,4.72
2023-04-25T16:57:58.619Z,3.15
2023-04-25T17:00:25.113Z,3.33
2023-04-25T17:02:54.919Z,1.77
2023-04-25T17:05:21.751Z,3.13
2023-04-25T17:07:48.401Z,2.20
2023-04-25T17:10:16.286Z,3.47
2023-04-25T17:12:42.771Z,3.85
2023-04-25T17:15:10.313Z,3.42
2023-04-25T17:17:36.753Z,3.80
2023-04-25T17:20:03.672Z,2.58
2023-04-25T17:22:30.162Z,3.53
2023-04-25T17:24:56.553Z,3.80
2023-04-25T17:27:24.415Z,3.60
2023-04-25T17:29:50.842Z,3.50
2023-04-25T17:32:17.606Z,2.25
2023-04-25T17:34:47.702Z,4.15
2023-04-25T17:37:22.545Z,3.45
2023-04-25T17:39:49.312Z,2.47
2023-04-25T17:42:15.901Z,2.25
2023-04-25T17:44:43.871Z,3.35
2023-04-25T17:47:10.640Z,3.72
2023-04-25T17:49:38.123Z,3.47
2023-04-25T17:52:04.903Z,3.78
2023-04-25T17:54:31.428Z,3.30
2023-04-25T17:56:58.724Z,2.58
2023-04-25T17:59:25.192Z,2.80
2023-04-25T18:01:52.991Z,3.20
2023-04-25T18:04:19.514Z,2.60
2023-04-25T18:06:45.987Z,2.72
2023-04-25T18:09:12.396Z,2.15
2023-04-25T18:11:38.797Z,1.70
2023-04-25T18:14:05.314Z,3.75
2023-04-25T18:16:32.127Z,3.65
2023-04-25T18:19:00.150Z,3.35
2023-04-25T18:21:26.598Z,4.47
2023-04-25T18:23:53.307Z,3.95
2023-04-25T18:26:19.716Z,3.63
2023-04-25T18:28:46.116Z,3.67
2023-04-25T18:31:12.543Z,3.67
2023-04-25T18:33:39.126Z,2.83
2023-04-25T18:36:07.741Z,3.63
2023-04-25T18:38:35.952Z,3.47
2023-04-25T18:43:47.415Z,3.72
2023-04-25T18:46:13.876Z,3.47
2023-04-25T18:48:40.313Z,2.13
2023-04-25T18:51:08.219Z,3.20
2023-04-25T18:53:34.771Z,2.78
2023-04-25T18:56:01.238Z,3.63
2023-04-25T18:58:27.638Z,2.80
2023-04-25T19:00:54.156Z,3.78
2023-04-25T19:03:21.321Z,3.97
2023-04-25T19:05:47.863Z,3.40
2023-04-25T19:08:15.591Z,3.58
2023-04-25T19:10:42.100Z,3.13
2023-04-25T19:13:08.566Z,3.50
2023-04-25T19:15:35.098Z,3.55
2023-04-25T19:18:01.616Z,3.45
2023-04-25T19:20:28.415Z,3.15
2023-04-25T19:22:54.912Z,3.88
2023-04-25T19:25:22.654Z,2.42
2023-04-25T19:27:49.136Z,3.47
2023-04-25T19:30:15.674Z,3.28
2023-04-25T19:32:42.406Z,4.22
2023-04-25T19:35:11.398Z,2.55
2023-04-25T19:37:38.675Z,5.63
2023-04-25T19:40:06.434Z,4.85
2023-04-25T19:42:34.258Z,5.07
2023-04-25T19:45:00.680Z,5.45
2023-04-25T19:47:27.139Z,8.07
2023-04-25T19:49:53.702Z,6.60
2023-04-25T19:52:20.298Z,6.25
2023-04-25T19:54:46.755Z,12.23
2023-04-25T19:57:13.861Z,7.60
2023-04-25T19:59:41.607Z,7.88
2023-04-25T20:02:08.583Z,6.38
2023-04-25T20:04:35.227Z,9.77
2023-04-25T20:07:01.706Z,5.45
2023-04-25T20:09:28.179Z,4.30
2023-04-25T20:11:54.642Z,6.90
2023-04-25T20:14:21.092Z,7.03
2023-04-25T20:16:48.973Z,8.63
2023-04-25T20:19:15.481Z,10.52
2023-04-25T20:21:42.007Z,7.28
2023-04-25T20:24:08.617Z,6.78
2023-04-25T20:26:35.040Z,6.88
2023-04-25T20:29:01.477Z,7.00
2023-04-25T20:31:29.209Z,6.13
2023-04-25T20:33:57.069Z,3.97
2023-04-25T20:36:23.489Z,6.00
2023-04-25T20:38:50.210Z,6.05
2023-04-25T20:41:16.770Z,5.93
2023-04-25T20:43:43.287Z,3.75
2023-04-25T20:46:09.728Z,4.45
2023-04-25T20:48:36.157Z,2.90
2023-04-25T20:51:04.022Z,4.28
2023-04-25T20:53:30.412Z,4.35
2023-04-25T20:55:56.775Z,3.42
2023-04-25T20:58:23.214Z,5.38
2023-04-25T21:00:49.661Z,5.00
2023-04-25T21:03:16.197Z,5.72
2023-04-25T21:05:42.768Z,4.63
2023-04-25T21:08:10.589Z,4.75
2023-04-25T21:10:37.508Z,3.22
2023-04-25T21:13:04.144Z,2.72
2023-04-25T21:15:30.659Z,3.80
2023-04-25T21:17:57.106Z,3.95
2023-04-25T21:20:23.589Z,4.50
2023-04-25T21:22:53.799Z,4.50
2023-04-25T21:25:24.085Z,4.28
2023-04-25T21:27:52.202Z,4.20
2023-04-25T21:30:22.382Z,4.70
2023-04-25T21:32:49.928Z,3.85
2023-04-25T21:35:17.562Z,2.70
2023-04-25T21:37:43.931Z,5.03
2023-04-25T21:40:10.834Z,4.63
2023-04-25T21:42:38.734Z,3.90
2023-04-25T21:45:06.892Z,4.45
2023-04-25T21:47:34.007Z,4.18
2023-04-25T21:50:00.744Z,3.15
2023-04-25T21:52:27.356Z,4.30
2023-04-25T21:54:53.938Z,4.03
2023-04-25T21:57:20.605Z,3.85
2023-04-25T21:59:48.656Z,4.57
2023-04-25T22:02:15.213Z,3.85
2023-04-25T22:04:42.137Z,4.40
2023-04-25T22:07:08.783Z,4.05
2023-04-25T22:09:47.367Z,3.88
2023-04-25T22:14:44.483Z,3.25
2023-04-25T22:17:12.216Z,3.40
2023-04-25T22:19:38.665Z,4.07
2023-04-25T22:22:05.068Z,2.15
2023-04-25T22:24:31.530Z,2.33
2023-04-25T22:26:57.938Z,4.18
2023-04-25T22:29:24.390Z,2.30
2023-04-25T22:31:50.887Z,2.70
2023-04-25T22:34:19.111Z,3.88
2023-04-25T22:36:45.522Z,2.97
2023-04-25T22:39:12.106Z,4.05
2023-04-25T22:41:38.480Z,4.28
2023-04-25T22:44:05.168Z,4.25
2023-04-25T22:46:31.700Z,4.20
2023-04-25T22:48:58.100Z,4.10
2023-04-25T22:51:25.807Z,4.82
2023-04-25T22:53:52.331Z,2.83
2023-04-25T22:56:18.706Z,4.15
2023-04-25T22:58:45.104Z,5.32
2023-04-25T23:01:12.605Z,5.53
2023-04-25T23:03:39.167Z,6.18
2023-04-25T23:06:05.875Z,5.70
2023-04-25T23:08:33.570Z,4.05
2023-04-25T23:10:59.967Z,4.20
2023-04-25T23:13:26.538Z,4.68
2023-04-25T23:15:52.985Z,4.97
2023-04-25T23:18:19.449Z,5.10
2023-04-25T23:20:45.834Z,5.13
2023-04-25T23:23:12.218Z,4.72
2023-04-25T23:25:39.962Z,4.75
2023-04-25T23:28:06.915Z,4.25
2023-04-25T23:30:33.557Z,4.13
2023-04-25T23:33:00.050Z,4.55
2023-04-25T23:35:26.612Z,4.82
2023-04-25T23:37:52.998Z,4.05
2023-04-25T23:40:19.505Z,5.07
2023-04-25T23:42:47.528Z,3.72
2023-04-25T23:45:13.939Z,4.28
2023-04-25T23:47:40.415Z,4.10
2023-04-25T23:50:08.132Z,5.05
2023-04-25T23:52:34.588Z,2.72
2023-04-25T23:55:01.002Z,5.10
2023-04-25T23:57:27.432Z,4.35
2023-04-25T23:59:55.183Z,4.32
